createdAt,value
2023-01-29T00:03:45.708Z,85.88
2023-01-29T00:08:47.405Z,86.33
2023-01-29T00:13:50.558Z,86.58
2023-01-29T00:18:52.671Z,86.03
2023-01-29T00:23:55.205Z,85.80
2023-01-29T00:28:57.515Z,86.00
2023-01-29T00:33:59.228Z,85.96
2023-01-29T00:39:02.536Z,86.30
2023-01-29T00:44:24.183Z,85.86
2023-01-29T00:49:26.589Z,86.09
2023-01-29T00:54:28.409Z,86.13
2023-01-29T00:59:30.586Z,85.54
2023-01-29T01:04:34.134Z,85.62
2023-01-29T01:09:55.986Z,85.02
2023-01-29T01:14:58.026Z,85.04
2023-01-29T01:19:59.776Z,84.76
2023-01-29T01:25:01.553Z,84.86
2023-01-29T01:30:04.545Z,85.01
2023-01-29T01:35:06.654Z,84.69
2023-01-29T01:40:19.421Z,84.80
2023-01-29T01:45:27.349Z,84.54
2023-01-29T01:50:42.676Z,84.39
2023-01-29T01:55:55.951Z,84.06
2023-01-29T02:00:58.813Z,84.04
2023-01-29T02:06:19.361Z,84.02
2023-01-29T02:11:21.550Z,83.92
2023-01-29T02:16:23.867Z,83.83
2023-01-29T02:21:45.317Z,83.75
2023-01-29T02:26:54.735Z,84.09
2023-01-29T02:32:14.278Z,83.91
2023-01-29T02:37:16.126Z,83.90
2023-01-29T02:42:44.392Z,83.51
2023-01-29T02:47:58.721Z,83.55
2023-01-29T02:53:07.858Z,83.85
2023-01-29T02:58:33.046Z,83.98
2023-01-29T03:03:41.245Z,84.18
2023-01-29T03:08:50.049Z,83.86
2023-01-29T03:13:51.799Z,83.64
2023-01-29T03:19:12.503Z,83.49
2023-01-29T03:24:36.213Z,83.98
2023-01-29T03:29:58.490Z,83.78
2023-01-29T03:35:13.023Z,83.78
2023-01-29T03:40:16.391Z,83.96
2023-01-29T03:45:43.178Z,83.90
2023-01-29T03:51:00.531Z,83.80
2023-01-29T03:56:11.434Z,84.15
2023-01-29T04:01:39.443Z,83.88
2023-01-29T04:06:45.816Z,83.18
2023-01-29T04:12:10.857Z,83.11
2023-01-29T04:17:20.628Z,83.35
2023-01-29T04:22:39.499Z,83.16
2023-01-29T04:28:12.584Z,82.89
2023-01-29T04:33:33.153Z,82.87
2023-01-29T04:38:53.109Z,82.40
2023-01-29T04:44:00.911Z,82.61
2023-01-29T04:49:14.691Z,82.77
2023-01-29T04:54:32.680Z,82.93
2023-01-29T04:59:41.199Z,83.53
2023-01-29T05:04:46.026Z,83.61
2023-01-29T05:09:49.496Z,83.47
2023-01-29T05:14:53.074Z,83.48
2023-01-29T05:19:56.626Z,82.37
2023-01-29T05:24:58.246Z,82.71
2023-01-29T05:30:00.349Z,82.56
2023-01-29T05:35:02.042Z,83.17
2023-01-29T05:40:03.961Z,83.01
2023-01-29T05:45:06.674Z,83.05
2023-01-29T05:50:09.242Z,82.94
2023-01-29T05:55:11.140Z,82.97
2023-01-29T06:00:13.562Z,82.82
2023-01-29T06:05:15.387Z,83.07
2023-01-29T06:10:18.850Z,82.79
2023-01-29T06:15:21.159Z,82.75
2023-01-29T06:20:23.596Z,82.42
2023-01-29T06:25:25.255Z,82.45
2023-01-29T06:30:28.412Z,82.41
2023-01-29T06:35:30.190Z,82.20
2023-01-29T06:40:31.809Z,81.66
2023-01-29T06:45:33.495Z,82.06
2023-01-29T06:50:35.375Z,81.90
2023-01-29T06:55:37.053Z,81.88
2023-01-29T07:00:39.062Z,80.75
2023-01-29T07:05:41.212Z,80.94
2023-01-29T07:10:43.453Z,80.41
2023-01-29T07:15:45.112Z,80.59
2023-01-29T07:20:46.735Z,80.66
2023-01-29T07:25:49.860Z,80.42
2023-01-29T07:30:56.555Z,80.58
2023-01-29T07:35:58.304Z,80.14
2023-01-29T07:41:01.306Z,79.88
2023-01-29T07:46:04.577Z,79.42
2023-01-29T07:51:06.598Z,79.94
2023-01-29T07:56:08.333Z,80.22
2023-01-29T08:01:10.177Z,80.39
2023-01-29T08:06:11.901Z,80.19
2023-01-29T08:11:13.546Z,80.67
2023-01-29T08:16:15.609Z,79.95
2023-01-29T08:21:17.359Z,79.95
2023-01-29T08:26:19.118Z,80.38
2023-01-29T08:31:21.127Z,79.86
2023-01-29T08:36:23.053Z,79.90
2023-01-29T08:41:24.848Z,79.78
2023-01-29T08:46:26.546Z,79.69
2023-01-29T08:51:28.958Z,79.73
2023-01-29T08:56:30.595Z,79.05
2023-01-29T09:01:32.280Z,79.00
2023-01-29T09:06:34.463Z,78.72
2023-01-29T09:11:36.191Z,78.73
2023-01-29T09:16:38.032Z,78.92
2023-01-29T09:21:39.742Z,78.31
2023-01-29T09:26:41.393Z,78.54
2023-01-29T09:31:43.190Z,76.84
2023-01-29T09:36:44.955Z,78.04
2023-01-29T09:42:01.565Z,78.17
2023-01-29T09:47:07.203Z,76.56
2023-01-29T09:52:18.588Z,76.99
2023-01-29T09:57:31.890Z,77.28
2023-01-29T10:03:11.177Z,77.25
2023-01-29T10:08:24.853Z,77.29
2023-01-29T10:13:26.595Z,76.48
2023-01-29T10:18:31.049Z,76.20
2023-01-29T10:23:42.580Z,75.91
2023-01-29T10:28:48.364Z,75.67
2023-01-29T10:34:02.120Z,75.41
2023-01-29T10:39:04.502Z,75.27
2023-01-29T10:44:30.988Z,75.17
2023-01-29T10:49:54.529Z,74.45
2023-01-29T10:55:15.895Z,74.24
2023-01-29T11:00:39.216Z,73.92
2023-01-29T11:06:08.271Z,74.41
2023-01-29T11:11:18.040Z,73.74
2023-01-29T11:16:19.797Z,73.46
2023-01-29T11:21:23.038Z,73.68
2023-01-29T11:26:24.897Z,73.28
2023-01-29T11:31:37.085Z,72.86
2023-01-29T11:36:39.738Z,72.81
2023-01-29T11:41:49.407Z,72.72
2023-01-29T11:46:51.226Z,73.00
2023-01-29T11:51:55.910Z,73.02
2023-01-29T11:56:58.522Z,72.52
2023-01-29T12:02:21.328Z,72.75
2023-01-29T12:07:23.173Z,72.62
2023-01-29T12:12:38.021Z,72.83
2023-01-29T12:17:43.460Z,73.18
2023-01-29T12:23:22.164Z,72.49
2023-01-29T12:28:31.551Z,72.93
2023-01-29T12:34:01.865Z,72.95
2023-01-29T12:39:03.792Z,73.57
2023-01-29T12:44:14.487Z,73.17
2023-01-29T12:49:22.979Z,73.23
2023-01-29T12:54:50.048Z,73.21
2023-01-29T12:59:58.968Z,73.26
2023-01-29T13:05:23.071Z,73.84
2023-01-29T13:10:32.622Z,73.49
2023-01-29T13:15:40.720Z,73.28
2023-01-29T13:20:43.485Z,73.33
2023-01-29T13:25:45.051Z,73.15
2023-01-29T13:30:47.505Z,73.56
2023-01-29T13:35:58.875Z,73.42
2023-01-29T13:41:04.404Z,72.99
2023-01-29T13:46:10.028Z,72.92
2023-01-29T13:51:20.064Z,72.76
2023-01-29T13:56:44.852Z,72.89
2023-01-29T14:01:46.521Z,73.35
2023-01-29T14:07:28.425Z,72.37
2023-01-29T14:12:37.354Z,72.52
2023-01-29T14:17:40.213Z,73.01
2023-01-29T14:22:43.090Z,72.77
2023-01-29T14:27:49.005Z,72.22
2023-01-29T14:32:51.629Z,72.57
2023-01-29T14:37:56.003Z,72.24
2023-01-29T14:43:02.845Z,72.41
2023-01-29T14:48:11.165Z,73.45
2023-01-29T14:53:24.105Z,74.38
2023-01-29T14:58:58.010Z,74.34
2023-01-29T15:04:14.545Z,74.14
2023-01-29T15:09:42.316Z,74.57
2023-01-29T15:15:15.256Z,74.58
2023-01-29T15:20:31.350Z,74.64
2023-01-29T15:25:37.801Z,75.24
2023-01-29T15:30:39.742Z,75.13
2023-01-29T15:35:42.490Z,75.01
2023-01-29T15:41:00.437Z,74.66
2023-01-29T15:46:06.541Z,74.61
2023-01-29T15:51:11.969Z,75.10
2023-01-29T15:56:18.575Z,74.33
2023-01-29T16:01:20.530Z,73.76
2023-01-29T16:06:23.526Z,73.90
2023-01-29T16:11:25.572Z,74.51
2023-01-29T16:16:28.082Z,73.69
2023-01-29T16:21:40.665Z,73.51
2023-01-29T16:26:45.278Z,73.15
2023-01-29T16:31:50.753Z,73.22
2023-01-29T16:36:54.685Z,73.52
2023-01-29T16:42:29.698Z,73.55
2023-01-29T16:47:41.452Z,72.99
2023-01-29T16:53:00.394Z,72.55
2023-01-29T16:58:13.400Z,73.37
2023-01-29T17:03:17.200Z,72.80
2023-01-29T17:08:34.120Z,73.42
2023-01-29T17:13:42.860Z,72.98
2023-01-29T17:18:44.506Z,73.15
2023-01-29T17:23:46.308Z,73.54
2023-01-29T17:28:52.262Z,73.52
2023-01-29T17:33:53.943Z,73.50
2023-01-29T17:38:55.645Z,73.84
2023-01-29T17:43:57.324Z,73.65
2023-01-29T17:48:59.128Z,74.21
2023-01-29T17:54:00.927Z,74.10
2023-01-29T17:59:02.619Z,74.12
2023-01-29T18:04:05.276Z,74.67
2023-01-29T18:09:07.548Z,74.61
2023-01-29T18:14:13.982Z,74.90
2023-01-29T18:19:21.371Z,75.07
2023-01-29T18:24:23.545Z,74.90
2023-01-29T18:29:29.938Z,74.96
2023-01-29T18:34:31.629Z,75.07
2023-01-29T18:39:51.540Z,74.87
2023-01-29T18:44:53.258Z,74.78
2023-01-29T18:49:55.150Z,75.04
2023-01-29T18:54:58.027Z,74.86
2023-01-29T18:59:59.777Z,74.72
2023-01-29T19:05:01.814Z,74.97
2023-01-29T19:10:06.778Z,74.82
2023-01-29T19:15:10.067Z,74.97
2023-01-29T19:20:12.256Z,74.97
2023-01-29T19:25:14.085Z,75.19
2023-01-29T19:30:16.078Z,75.20
2023-01-29T19:35:18.135Z,75.43
2023-01-29T19:40:20.995Z,75.27
2023-01-29T19:45:37.060Z,75.54
2023-01-29T19:50:52.946Z,75.45
2023-01-29T19:56:03.059Z,75.70
2023-01-29T20:01:07.726Z,75.56
2023-01-29T20:06:09.612Z,76.00
2023-01-29T20:11:13.096Z,76.38
2023-01-29T20:16:14.897Z,76.51
2023-01-29T20:21:20.485Z,76.45
2023-01-29T20:26:22.726Z,76.84
2023-01-29T20:31:24.612Z,76.88
2023-01-29T20:36:26.329Z,77.58
2023-01-29T20:41:28.920Z,77.59
2023-01-29T20:46:30.575Z,77.76
2023-01-29T20:51:32.368Z,77.18
2023-01-29T20:56:41.023Z,77.07
2023-01-29T21:01:48.328Z,77.34
2023-01-29T21:06:50.100Z,76.99
2023-01-29T21:11:51.910Z,76.82
2023-01-29T21:16:53.805Z,76.90
2023-01-29T21:21:57.872Z,76.91
2023-01-29T21:26:59.792Z,76.69
2023-01-29T21:32:01.675Z,76.22
2023-01-29T21:37:03.353Z,76.60
2023-01-29T21:42:23.890Z,76.48
2023-01-29T21:47:25.619Z,76.60
2023-01-29T21:52:27.338Z,76.91
2023-01-29T21:57:28.970Z,76.61
2023-01-29T22:02:32.071Z,76.90
2023-01-29T22:07:34.470Z,77.03
2023-01-29T22:12:36.524Z,77.00
2023-01-29T22:17:41.204Z,77.07
2023-01-29T22:22:43.121Z,77.14
2023-01-29T22:27:44.763Z,77.22
2023-01-29T22:32:46.427Z,77.34
2023-01-29T22:37:48.110Z,77.13
2023-01-29T22:42:50.077Z,77.15
2023-01-29T22:47:51.836Z,77.29
2023-01-29T22:52:54.250Z,77.51
2023-01-29T22:57:56.089Z,77.75
2023-01-29T23:02:57.812Z,77.78
2023-01-29T23:07:59.541Z,77.80
2023-01-29T23:13:01.240Z,77.63
2023-01-29T23:18:03.412Z,77.65
2023-01-29T23:23:05.129Z,77.95
2023-01-29T23:28:06.865Z,78.25
2023-01-29T23:33:11.875Z,77.80
2023-01-29T23:38:13.872Z,77.98
2023-01-29T23:43:15.568Z,78.10
2023-01-29T23:48:17.253Z,78.11
2023-01-29T23:53:18.940Z,78.20
2023-01-29T23:58:20.591Z,78.28
